Arnold, Illinois
Current Conditions -  °F | °C
As of 7:15 AM on Tuesday 21 Oct 2014 (Local Time) from KIJX Reporting Station
Clear Clear  
Wind Chill: 40°   Ceiling: Unl
Heat Index: 43°   Visibility: 10mi
Dew Point: 40°   Wind: 5mph
Humidity: 90%   Direction: 30°NNE
Pressure: 30.11"   Gusts: NA
Location:  39.7413°N, 90.2138°W
Report Text: KIJX 211215Z AUTO 03004KT 10SM CLR 06/04 A3011 RMK AO2 T00600044
Loading
Personal Weather Stations






























Interactive Weather Map
Tropical Storm Tracking
New forecast layout! Learn more

10-Day Weather Forecast

Advertisements
Track Severe Weather on mobile